createdAt,value
2023-03-16T00:00:19.751Z,56.18
2023-03-16T00:03:21.365Z,56.81
2023-03-16T00:06:25.532Z,57.13
2023-03-16T00:09:31.174Z,57.03
2023-03-16T00:12:34.846Z,57.21
2023-03-16T00:15:36.423Z,55.57
2023-03-16T00:18:40.908Z,55.00
2023-03-16T00:21:42.511Z,54.67
2023-03-16T00:24:44.053Z,54.81
2023-03-16T00:27:45.609Z,54.68
2023-03-16T00:30:47.436Z,54.49
2023-03-16T00:33:50.941Z,54.24
2023-03-16T00:36:52.458Z,54.27
2023-03-16T00:39:58.197Z,53.96
2023-03-16T00:42:59.867Z,54.18
2023-03-16T00:46:06.817Z,54.30
2023-03-16T00:49:09.477Z,54.59
2023-03-16T00:52:14.640Z,54.65
2023-03-16T00:55:16.245Z,54.54
2023-03-16T00:58:17.741Z,54.54
2023-03-16T01:01:20.812Z,54.50
2023-03-16T01:04:23.162Z,54.48
2023-03-16T01:07:24.821Z,54.32
2023-03-16T01:10:26.520Z,54.96
2023-03-16T01:13:28.536Z,54.97
2023-03-16T01:16:30.263Z,55.21
2023-03-16T01:19:35.702Z,55.21
2023-03-16T01:22:38.801Z,54.70
2023-03-16T01:25:41.266Z,55.38
2023-03-16T01:28:44.420Z,55.36
2023-03-16T01:31:46.015Z,55.23
2023-03-16T01:34:47.534Z,55.34
2023-03-16T01:37:50.283Z,54.98
2023-03-16T01:40:56.790Z,55.21
2023-03-16T01:43:59.697Z,55.09
2023-03-16T01:47:02.831Z,55.07
2023-03-16T01:50:06.036Z,54.89
2023-03-16T01:53:11.633Z,55.38
2023-03-16T01:56:18.556Z,55.50
2023-03-16T01:59:23.253Z,55.70
2023-03-16T02:02:30.816Z,55.61
2023-03-16T02:05:38.284Z,55.47
2023-03-16T02:08:42.846Z,55.57
2023-03-16T02:11:44.481Z,55.59
2023-03-16T02:14:49.585Z,55.61
2023-03-16T02:17:51.688Z,55.69
2023-03-16T02:21:19.526Z,55.94
2023-03-16T02:24:21.801Z,55.41
2023-03-16T02:28:08.596Z,56.06
2023-03-16T02:31:19.060Z,56.19
2023-03-16T02:34:21.483Z,56.32
2023-03-16T02:37:23.004Z,56.39
2023-03-16T02:40:32.891Z,56.44
2023-03-16T02:43:41.742Z,56.38
2023-03-16T02:47:03.166Z,56.53
2023-03-16T02:50:06.784Z,56.30
2023-03-16T02:53:08.514Z,56.11
2023-03-16T02:56:10.998Z,56.22
2023-03-16T02:59:12.685Z,56.46
2023-03-16T03:02:14.488Z,56.04
2023-03-16T03:05:16.000Z,56.48
2023-03-16T03:08:20.312Z,56.20
2023-03-16T03:11:21.958Z,56.40
2023-03-16T03:14:25.319Z,56.13
2023-03-16T03:17:30.262Z,56.14
2023-03-16T03:20:33.326Z,55.88
2023-03-16T03:23:37.656Z,56.10
2023-03-16T03:26:41.968Z,56.39
2023-03-16T03:29:50.690Z,56.25
2023-03-16T03:32:52.658Z,56.22
2023-03-16T03:35:58.027Z,56.35
2023-03-16T03:39:05.414Z,56.11
2023-03-16T03:42:08.707Z,56.52
2023-03-16T03:45:14.252Z,56.00
2023-03-16T03:48:15.788Z,56.32
2023-03-16T03:51:17.352Z,56.25
2023-03-16T03:54:37.999Z,56.03
2023-03-16T03:57:43.712Z,56.33
2023-03-16T04:00:45.293Z,56.63
2023-03-16T04:03:46.900Z,56.80
2023-03-16T04:06:51.525Z,56.66
2023-03-16T04:09:53.221Z,56.94
2023-03-16T04:13:10.025Z,57.57
2023-03-16T04:16:16.347Z,57.39
2023-03-16T04:19:21.292Z,57.50
2023-03-16T04:22:23.216Z,57.22
2023-03-16T04:25:27.299Z,57.71
2023-03-16T04:28:29.209Z,56.90
2023-03-16T04:31:31.942Z,57.03
2023-03-16T04:34:34.431Z,56.50
2023-03-16T04:37:39.068Z,56.36
2023-03-16T04:40:41.066Z,56.13
2023-03-16T04:43:50.672Z,56.60
2023-03-16T04:46:55.433Z,56.18
2023-03-16T04:49:59.000Z,56.58
2023-03-16T04:53:00.597Z,56.79
2023-03-16T04:56:04.257Z,56.25
2023-03-16T04:59:06.777Z,56.48
2023-03-16T05:02:20.108Z,56.79
2023-03-16T05:05:22.801Z,56.99
2023-03-16T05:08:24.583Z,56.43
2023-03-16T05:11:28.318Z,56.35
2023-03-16T05:14:35.993Z,56.58
2023-03-16T05:18:01.593Z,56.73
2023-03-16T05:21:04.155Z,56.46
2023-03-16T05:24:17.215Z,56.76
2023-03-16T05:27:18.836Z,56.05
2023-03-16T05:30:20.922Z,56.15
2023-03-16T05:33:25.580Z,56.34
2023-03-16T05:36:35.947Z,56.04
2023-03-16T05:39:43.220Z,55.72
2023-03-16T05:42:46.981Z,55.89
2023-03-16T05:45:48.749Z,55.73
2023-03-16T05:48:52.432Z,55.61
2023-03-16T05:51:55.731Z,55.86
2023-03-16T05:54:57.559Z,55.65
2023-03-16T05:57:59.498Z,56.01
2023-03-16T06:01:01.844Z,55.82
2023-03-16T06:04:05.620Z,56.33
2023-03-16T06:07:10.943Z,55.79
2023-03-16T06:10:13.790Z,55.93
2023-03-16T06:13:15.810Z,55.56
2023-03-16T06:16:17.934Z,55.41
2023-03-16T06:19:20.162Z,55.20
2023-03-16T06:22:26.290Z,54.84
2023-03-16T06:25:28.347Z,55.15
2023-03-16T06:28:30.532Z,54.99
2023-03-16T06:31:34.085Z,54.41
2023-03-16T06:34:38.225Z,53.99
2023-03-16T06:37:41.190Z,53.81
2023-03-16T06:40:57.491Z,53.76
2023-03-16T06:43:59.329Z,53.69
2023-03-16T06:47:02.051Z,54.33
2023-03-16T06:50:04.493Z,54.09
2023-03-16T06:53:06.299Z,53.19
2023-03-16T06:56:09.621Z,53.68
2023-03-16T06:59:15.288Z,53.67
2023-03-16T07:02:17.129Z,53.32
2023-03-16T07:05:18.967Z,52.43
2023-03-16T07:08:21.807Z,51.76
2023-03-16T07:11:23.536Z,52.27
2023-03-16T07:14:26.297Z,51.62
2023-03-16T07:17:30.100Z,50.67
2023-03-16T07:20:33.010Z,48.96
2023-03-16T07:23:37.471Z,48.53
2023-03-16T07:26:41.321Z,49.91
2023-03-16T07:29:43.967Z,50.04
2023-03-16T07:32:45.533Z,48.35
2023-03-16T07:35:47.208Z,48.66
2023-03-16T07:38:48.953Z,49.06
2023-03-16T07:41:51.300Z,48.72
2023-03-16T07:45:05.545Z,48.58
2023-03-16T07:48:07.279Z,48.40
2023-03-16T07:51:16.934Z,48.62
2023-03-16T07:54:22.418Z,47.28
2023-03-16T07:57:24.178Z,46.17
2023-03-16T08:00:26.064Z,45.15
2023-03-16T08:03:29.485Z,45.41
2023-03-16T08:06:31.311Z,45.49
2023-03-16T08:09:36.117Z,45.37
2023-03-16T08:12:40.454Z,45.30
2023-03-16T08:15:46.300Z,44.78
2023-03-16T08:18:59.710Z,43.66
2023-03-16T08:22:02.270Z,42.80
2023-03-16T08:25:12.337Z,42.02
2023-03-16T08:28:25.626Z,41.75
2023-03-16T08:31:30.334Z,41.02
2023-03-16T08:34:40.817Z,40.94
2023-03-16T08:37:43.975Z,40.45
2023-03-16T08:40:48.920Z,40.33
2023-03-16T08:43:53.136Z,39.70
2023-03-16T08:46:55.364Z,39.29
2023-03-16T08:49:57.584Z,39.42
2023-03-16T08:52:59.435Z,39.15
2023-03-16T08:56:06.311Z,38.82
2023-03-16T08:59:16.814Z,38.46
2023-03-16T09:02:25.650Z,38.60
2023-03-16T09:05:27.612Z,38.43
2023-03-16T09:08:30.258Z,38.22
2023-03-16T09:11:34.133Z,38.66
2023-03-16T09:14:38.450Z,39.49
2023-03-16T09:17:41.802Z,40.05
2023-03-16T09:20:43.823Z,40.71
2023-03-16T09:23:46.126Z,40.91
2023-03-16T09:26:47.731Z,39.46
2023-03-16T09:29:50.905Z,38.76
2023-03-16T09:32:52.646Z,38.46
2023-03-16T09:35:56.136Z,38.31
2023-03-16T09:38:57.752Z,38.08
2023-03-16T09:42:07.681Z,37.84
2023-03-16T09:45:19.054Z,37.37
2023-03-16T09:48:21.615Z,36.77
2023-03-16T09:51:43.658Z,37.02
2023-03-16T09:55:17.141Z,36.44
2023-03-16T09:58:21.527Z,36.94
2023-03-16T10:01:43.257Z,35.96
2023-03-16T10:05:09.724Z,35.52
2023-03-16T10:08:24.960Z,35.34
2023-03-16T10:11:33.522Z,34.76
2023-03-16T10:14:48.117Z,37.47
2023-03-16T10:18:11.828Z,40.20
2023-03-16T10:21:18.358Z,40.46
2023-03-16T10:24:39.760Z,41.34
2023-03-16T10:27:44.805Z,41.76
2023-03-16T10:30:50.122Z,42.01
2023-03-16T10:33:58.461Z,43.00
2023-03-16T10:37:02.997Z,44.17
2023-03-16T10:40:10.281Z,44.63
2023-03-16T10:43:13.910Z,45.00
2023-03-16T10:46:15.741Z,45.40
2023-03-16T10:49:27.824Z,45.88
2023-03-16T10:52:40.888Z,45.38
2023-03-16T10:55:45.748Z,44.38
2023-03-16T10:58:47.378Z,44.03
2023-03-16T11:01:52.320Z,43.97
2023-03-16T11:04:54.803Z,43.97
2023-03-16T11:08:12.165Z,43.70
2023-03-16T11:11:26.081Z,43.74
2023-03-16T11:14:28.762Z,44.11
2023-03-16T11:17:43.278Z,42.88
2023-03-16T11:20:45.708Z,42.74
2023-03-16T11:23:56.269Z,42.73
2023-03-16T11:27:01.709Z,42.51
2023-03-16T11:30:24.774Z,41.68
2023-03-16T11:33:27.542Z,41.62
2023-03-16T11:36:40.223Z,41.31
2023-03-16T11:40:14.252Z,41.01
2023-03-16T11:43:55.286Z,42.31
2023-03-16T11:47:18.257Z,42.36
2023-03-16T11:50:20.060Z,42.12
2023-03-16T11:53:27.444Z,41.95
2023-03-16T11:56:35.733Z,42.20
2023-03-16T12:00:03.295Z,41.83
2023-03-16T12:03:53.785Z,41.50
2023-03-16T12:07:04.970Z,41.62
2023-03-16T12:10:14.198Z,41.44
2023-03-16T12:13:22.900Z,41.92
2023-03-16T12:16:53.731Z,41.90
2023-03-16T12:20:05.677Z,41.55
2023-03-16T12:23:14.906Z,38.41
2023-03-16T12:26:19.207Z,36.61
2023-03-16T12:29:32.604Z,36.62
2023-03-16T12:32:46.803Z,36.06
2023-03-16T12:36:11.112Z,36.21
2023-03-16T12:39:23.094Z,36.33
2023-03-16T12:42:40.552Z,36.13
2023-03-16T12:45:48.234Z,35.76
2023-03-16T12:48:56.388Z,35.11
2023-03-16T12:52:07.041Z,35.27
2023-03-16T12:55:20.032Z,34.97
2023-03-16T12:58:24.819Z,35.00
2023-03-16T13:01:29.402Z,34.59
2023-03-16T13:04:33.799Z,34.99
2023-03-16T13:07:37.953Z,35.52
2023-03-16T13:10:39.417Z,34.82
2023-03-16T13:14:00.657Z,34.67
2023-03-16T13:17:27.249Z,34.87
2023-03-16T13:20:50.879Z,34.76
2023-03-16T13:23:59.839Z,34.67
2023-03-16T13:27:15.941Z,34.29
2023-03-16T13:30:23.601Z,34.24
2023-03-16T13:33:28.262Z,34.00
2023-03-16T13:36:31.977Z,33.95
2023-03-16T13:39:34.012Z,33.64
2023-03-16T13:42:36.782Z,33.70
2023-03-16T13:45:39.245Z,33.35
2023-03-16T13:48:41.820Z,33.37
2023-03-16T13:51:45.179Z,33.09
2023-03-16T13:54:47.310Z,32.79
2023-03-16T13:57:49.414Z,32.88
2023-03-16T14:00:55.836Z,32.37
2023-03-16T14:04:08.815Z,32.44
2023-03-16T14:07:19.722Z,32.32
2023-03-16T14:10:24.880Z,32.17
2023-03-16T14:13:29.728Z,31.98
2023-03-16T14:16:32.173Z,32.18
2023-03-16T14:19:43.814Z,31.74
2023-03-16T14:22:46.288Z,31.23
2023-03-16T14:25:49.297Z,30.76
2023-03-16T14:29:22.048Z,30.08
2023-03-16T14:32:30.364Z,30.22
2023-03-16T14:35:43.898Z,29.75
2023-03-16T14:38:54.329Z,29.93
2023-03-16T14:41:55.951Z,30.03
2023-03-16T14:45:07.556Z,29.66
2023-03-16T14:48:21.273Z,31.47
2023-03-16T14:51:22.843Z,33.15
2023-03-16T14:54:26.105Z,33.45
2023-03-16T14:57:27.710Z,33.82
2023-03-16T15:00:32.977Z,33.94
2023-03-16T15:03:37.949Z,33.94
2023-03-16T15:06:39.409Z,34.52
2023-03-16T15:09:46.004Z,34.90
2023-03-16T15:12:54.139Z,35.59
2023-03-16T15:15:55.760Z,35.94
2023-03-16T15:18:57.844Z,36.15
2023-03-16T15:22:01.713Z,36.27
2023-03-16T15:25:20.173Z,36.73
2023-03-16T15:28:23.767Z,37.00
2023-03-16T15:31:25.474Z,37.87
2023-03-16T15:34:27.504Z,38.57
2023-03-16T15:37:30.222Z,38.64
2023-03-16T15:40:32.658Z,39.05
2023-03-16T15:43:34.125Z,39.50
2023-03-16T15:46:36.372Z,39.80
2023-03-16T15:49:47.103Z,39.83
2023-03-16T15:52:58.037Z,39.68
2023-03-16T15:56:03.478Z,39.90
2023-03-16T15:59:06.567Z,39.92
2023-03-16T16:02:28.380Z,40.22
2023-03-16T16:05:30.907Z,40.32
2023-03-16T16:08:32.453Z,39.86
2023-03-16T16:11:34.038Z,39.83
2023-03-16T16:14:35.651Z,40.08
2023-03-16T16:17:53.797Z,39.57
2023-03-16T16:21:00.894Z,39.38
2023-03-16T16:24:03.148Z,39.07
2023-03-16T16:27:05.420Z,38.75
2023-03-16T16:30:28.571Z,34.26
2023-03-16T16:33:35.667Z,33.89
2023-03-16T16:36:37.326Z,33.54
2023-03-16T16:39:39.301Z,33.58
2023-03-16T16:42:41.470Z,32.55
2023-03-16T16:45:43.030Z,31.75
2023-03-16T16:48:49.973Z,31.75
2023-03-16T16:51:52.692Z,32.22
2023-03-16T16:54:54.191Z,32.99
2023-03-16T16:57:55.963Z,33.43
2023-03-16T17:00:58.960Z,34.42
2023-03-16T17:04:02.283Z,35.53
2023-03-16T17:07:06.496Z,36.72
2023-03-16T17:10:09.762Z,38.08
2023-03-16T17:13:26.565Z,37.93
2023-03-16T17:16:32.119Z,37.90
2023-03-16T17:19:33.761Z,38.81
2023-03-16T17:22:35.290Z,40.09
2023-03-16T17:25:36.969Z,42.20
2023-03-16T17:28:43.675Z,43.47
2023-03-16T17:31:45.255Z,44.28
2023-03-16T17:34:46.942Z,45.23
2023-03-16T17:37:48.771Z,45.76
2023-03-16T17:40:52.380Z,45.77
2023-03-16T17:43:57.204Z,46.43
2023-03-16T17:46:58.758Z,46.70
2023-03-16T17:50:01.054Z,47.18
2023-03-16T17:53:03.695Z,47.68
2023-03-16T17:56:19.940Z,47.68
2023-03-16T17:59:22.030Z,47.87
2023-03-16T18:02:38.629Z,48.33
2023-03-16T18:05:41.245Z,48.42
2023-03-16T18:08:42.761Z,48.52
2023-03-16T18:11:51.348Z,48.52
2023-03-16T18:14:58.414Z,48.83
2023-03-16T18:18:00.732Z,49.29
2023-03-16T18:21:02.829Z,49.17
2023-03-16T18:24:14.477Z,49.58
2023-03-16T18:27:16.210Z,49.81
2023-03-16T18:30:18.066Z,50.02
2023-03-16T18:33:33.660Z,49.96
2023-03-16T18:36:37.683Z,49.66
2023-03-16T18:39:39.526Z,49.52
2023-03-16T18:42:41.400Z,49.58
2023-03-16T18:45:45.917Z,49.79
2023-03-16T18:48:47.695Z,50.34
2023-03-16T18:51:51.988Z,50.36
2023-03-16T18:54:53.502Z,50.56
2023-03-16T18:57:57.436Z,50.59
2023-03-16T19:01:01.009Z,50.79
2023-03-16T19:04:02.920Z,50.59
2023-03-16T19:07:06.457Z,50.01
2023-03-16T19:10:16.187Z,49.97
2023-03-16T19:13:21.138Z,50.34
2023-03-16T19:16:23.234Z,50.01
2023-03-16T19:19:25.546Z,49.46
2023-03-16T19:22:27.356Z,49.03
2023-03-16T19:25:32.109Z,48.72
2023-03-16T19:28:37.125Z,49.06
2023-03-16T19:31:38.738Z,49.33
2023-03-16T19:34:40.244Z,49.68
2023-03-16T19:37:42.053Z,49.91
2023-03-16T19:40:44.036Z,49.88
2023-03-16T19:43:45.677Z,49.96
2023-03-16T19:46:48.873Z,49.94
2023-03-16T19:49:50.500Z,49.72
2023-03-16T19:52:52.573Z,49.32
2023-03-16T19:55:54.721Z,49.28
2023-03-16T19:58:56.396Z,49.66
2023-03-16T20:01:58.198Z,50.02
2023-03-16T20:04:59.705Z,47.32
2023-03-16T20:08:02.508Z,46.80
2023-03-16T20:11:14.003Z,46.81
2023-03-16T20:14:39.783Z,46.57
2023-03-16T20:17:43.263Z,46.30
2023-03-16T20:20:46.018Z,46.02
2023-03-16T20:23:48.056Z,45.87
2023-03-16T20:26:51.526Z,46.28
2023-03-16T20:29:53.151Z,45.83
2023-03-16T20:32:54.973Z,46.05
2023-03-16T20:35:57.051Z,46.48
2023-03-16T20:38:58.544Z,46.71
2023-03-16T20:42:00.308Z,47.15
2023-03-16T20:45:02.112Z,47.39
2023-03-16T20:48:13.659Z,47.68
2023-03-16T20:51:16.381Z,48.25
2023-03-16T20:54:17.906Z,48.11
2023-03-16T20:57:22.705Z,48.12
2023-03-16T21:00:36.415Z,48.07
2023-03-16T21:03:39.351Z,47.68
2023-03-16T21:06:41.341Z,47.57
2023-03-16T21:09:49.911Z,47.23
2023-03-16T21:12:55.351Z,47.44
2023-03-16T21:15:59.712Z,47.37
2023-03-16T21:19:01.272Z,47.58
2023-03-16T21:22:02.802Z,47.88
2023-03-16T21:25:04.689Z,48.76
2023-03-16T21:28:06.243Z,48.41
2023-03-16T21:31:08.374Z,48.81
2023-03-16T21:34:30.565Z,48.88
2023-03-16T21:37:32.074Z,49.26
2023-03-16T21:40:33.530Z,48.73
2023-03-16T21:43:35.497Z,49.12
2023-03-16T21:46:37.031Z,49.43
2023-03-16T21:49:39.464Z,49.84
2023-03-16T21:52:43.242Z,49.12
2023-03-16T21:55:44.821Z,49.29
2023-03-16T21:58:47.305Z,49.17
2023-03-16T22:02:01.271Z,49.02
2023-03-16T22:05:15.182Z,48.78
2023-03-16T22:08:22.983Z,48.32
2023-03-16T22:11:30.686Z,48.68
2023-03-16T22:14:32.482Z,49.15
2023-03-16T22:17:34.570Z,48.96
2023-03-16T22:20:36.535Z,49.14
2023-03-16T22:23:38.125Z,49.21
2023-03-16T22:26:39.825Z,48.58
2023-03-16T22:29:44.407Z,48.69
2023-03-16T22:33:03.396Z,48.62
2023-03-16T22:36:14.881Z,48.63
2023-03-16T22:39:16.624Z,48.65
2023-03-16T22:42:27.226Z,48.50
2023-03-16T22:45:31.352Z,48.39
2023-03-16T22:48:33.069Z,48.45
2023-03-16T22:51:37.001Z,48.08
2023-03-16T22:54:38.668Z,48.18
2023-03-16T22:57:40.351Z,48.36
2023-03-16T23:00:42.807Z,48.42
2023-03-16T23:03:49.637Z,48.33
2023-03-16T23:06:54.085Z,48.25
2023-03-16T23:09:55.961Z,48.35
2023-03-16T23:12:59.550Z,48.70
2023-03-16T23:16:01.298Z,48.71
2023-03-16T23:19:07.639Z,48.99
2023-03-16T23:22:14.497Z,48.73
2023-03-16T23:25:16.132Z,48.57
2023-03-16T23:28:23.110Z,48.80
2023-03-16T23:31:27.212Z,48.59
2023-03-16T23:34:28.744Z,49.31
2023-03-16T23:37:30.784Z,48.96
2023-03-16T23:40:36.551Z,49.05
2023-03-16T23:43:39.911Z,49.35
2023-03-16T23:46:42.083Z,49.47
2023-03-16T23:49:43.685Z,50.34
2023-03-16T23:52:45.426Z,49.41
2023-03-16T23:55:48.005Z,49.56
2023-03-16T23:58:50.072Z,49.61
